Meteo Giornale » Osservazioni meteo Stati Uniti (USA) » Saint George
ore: 02:56 - Osservazioni Meteo Saint George
Lat. 37° 5' N Lon. 113° 36' W Alt. 896 metri s.l.m.
21 °C
Sereno
Temp. 24 Ore
20 °C
31 °C
Nord
5.5 Km/h
Dew point 15 °C
Umidità 68 %
Visibilità 10 Km
Il sole sorge alle ore 07:05
Il sole tramonta alle ore 20:03
| Data e Ora | Cielo e Fenomeni | T °C | DP °C | Um. % | Pres. hPa | Vis. km | Vento km/h | |
|---|---|---|---|---|---|---|---|---|
| Oggi h: 02:56 | Sereno | 21 | 15 | 68 | 1017 | 10 | N 5.5 | |
| Oggi h: 01:56 | Molto Nuvoloso | 21 | 14 | 64 | 1017 | 10 | N/NE 11.1 | |
| Oggi h: 00:56 | Nuvoloso | 21 | 14 | 64 | 1017 | 10 | N 5.5 | |
| Ieri h: 23:56 | Nuvoloso | 22 | 13 | 56 | 1016 | 10 | NE 16.7 | |
| Ieri h: 22:56 | Sereno | 22 | 13 | 56 | 1016 | 10 | NE 25.9 | |
| Ieri h: 21:56 | Sereno | 22 | 12 | 53 | 1015 | 10 | NE 38.8 | |
| Ieri h: 20:56 | Molto Nuvoloso | 24 | 11 | 43 | 1014 | 10 | NE 42.6 | |
| Ieri h: 20:42 | Nuvoloso | 26 | 12 | 41 | 1013 | 14 | NE 48.1 | |
| Ieri h: 19:56 | Poco Nuvoloso | 27 | 13 | 42 | 1012 | 10 | E/SE 25.9 | |
| Ieri h: 18:56 | Sereno | 30 | 15 | 40 | 1012 | 10 | N/NE 16.7 | |
| Ieri h: 17:56 | Sereno | 31 | 14 | 35 | 1012 | 10 | N/NE 9.3 | |
| Ieri h: 16:56 | Sereno | 31 | 15 | 37 | 1012 | 10 | NE 16.7 | |
| Ieri h: 15:56 | Sereno | 28 | 16 | 48 | 1013 | 10 | NE 29.6 | |
| Ieri h: 14:56 | Molto Nuvoloso | 26 | 16 | 54 | 1014 | 10 | NE 40.7 | |
| Ieri h: 14:23 | Molto Nuvoloso | 26 | 16 | 54 | 1014 | 10 | NE 33.3 | |
| Ieri h: 14:09 | Temporale nelle vicinanze | 26 | 17 | 57 | 1014 | 10 | N 27.8 | |
| Ieri h: 13:56 | Temporale | 27 | 18 | 57 | 1014 | 10 | N/NE 22.2 | |
| Ieri h: 13:23 | Temporale | 27 | 18 | 57 | 1015 | 10 | NE 9.3 | |
| Ieri h: 13:06 | Molto Nuvoloso | 27 | 16 | 50 | 1015 | 10 | E 16.7 | |
| Ieri h: 12:56 | Temporale nelle vicinanze | 26 | 17 | 57 | 1015 | 10 | E 14.8 | |
| Ieri h: 12:40 | Temporale nelle vicinanze | 25 | 17 | 61 | 1015 | 10 | E/SE 24 | |
| Ieri h: 11:56 | Temporale | 24 | 17 | 64 | 1015 | 10 | S 22.2 | |
| Ieri h: 11:52 | Temporale | 24 | 16 | 60 | 1015 | 10 | S 24 | |
| Ieri h: 11:43 | Temporale raffiche di vento | 20 | 16 | 77 | 1016 | 2 | SO 46.3 | |
| Ieri h: 11:35 | Temporale raffiche di vento | 26 | 18 | 61 | 1014 | 11 | S/SO 68.5 | |
| Ieri h: 11:29 | Temporale | 29 | 17 | 48 | 1015 | 10 | SE 24 | |
| Ieri h: 10:56 | Molto Nuvoloso | 31 | 14 | 35 | 1015 | 10 | E 18.5 | |
| Ieri h: 09:56 | Nuvoloso | 29 | 14 | 39 | 1015 | 10 | E/NE 22.2 | |
| Ieri h: 08:56 | Sereno | 27 | 14 | 44 | 1015 | 10 | E/SE 22.2 | |
| Ieri h: 07:56 | Nuvoloso | 24 | 10 | 41 | 1015 | 10 | SE 13 | |
| Ieri h: 06:56 | Molto Nuvoloso | 24 | 8 | 35 | 1014 | 10 | N 0 | |
| Ieri h: 05:56 | Nuvoloso | 23 | 7 | 35 | 1014 | 10 | N 5.5 | |
| Ieri h: 04:56 | Sereno | 25 | 8 | 33 | 1014 | 10 | N 7.4 | |
| Ieri h: 03:56 | Sereno | 26 | 9 | 34 | 1013 | 10 | N 5.5 | |



